Time;durP1;ratioP1;P1;durP2;ratioP2;P2;SDS_P1;SDS_P2;PMS_P1;PMS_P2;Temp;Humidity;BMP_temperature;BMP_pressure;BME280_temperature;BME280_humidity;BME280_pressure;Samples;Min_cycle;Max_cycle;Signal;HPM_P1;HPM_P2
2022/10/09 00:01:29;;;;;;;0.28;0.20;;;20.60;43.40;;;;;;4918276;29;20215;-39
2022/10/09 00:04:01;;;;;;;1.52;0.28;;;20.60;43.50;;;;;;4915000;29;20236;-46
2022/10/09 00:06:34;;;;;;;0.30;0.25;;;20.60;43.60;;;;;;4921663;29;20196;-37
2022/10/09 00:09:05;;;;;;;1.50;0.30;;;20.70;43.80;;;;;;4932978;29;20695;-37
2022/10/09 00:11:37;;;;;;;0.38;0.32;;;20.70;43.80;;;;;;4933935;29;20238;-37
2022/10/09 00:14:09;;;;;;;1.50;0.43;;;20.70;43.90;;;;;;4932771;29;20212;-37
2022/10/09 00:16:40;;;;;;;0.20;0.20;;;20.70;43.90;;;;;;4931332;29;20211;-41
2022/10/09 00:19:11;;;;;;;0.55;0.30;;;20.70;43.90;;;;;;4924234;29;20200;-40
2022/10/09 00:21:43;;;;;;;0.60;0.35;;;20.60;43.80;;;;;;4922281;29;20748;-43
2022/10/09 00:24:14;;;;;;;1.70;0.35;;;20.70;43.80;;;;;;4933354;29;20618;-37
2022/10/09 00:26:44;;;;;;;0.30;0.22;;;20.70;43.90;;;;;;4933098;29;20203;-37
2022/10/09 00:29:17;;;;;;;0.75;0.30;;;20.70;43.90;;;;;;4924474;29;20223;-39
2022/10/09 00:31:50;;;;;;;0.28;0.28;;;20.70;44.00;;;;;;4914243;29;20224;-41
2022/10/09 00:34:21;;;;;;;0.85;0.20;;;20.70;44.10;;;;;;4926684;29;20215;-42
2022/10/09 00:36:52;;;;;;;0.60;0.22;;;20.70;44.20;;;;;;4933031;29;20227;-47
2022/10/09 00:39:22;;;;;;;0.28;0.10;;;20.70;44.30;;;;;;4933385;29;20200;-37
2022/10/09 00:41:53;;;;;;;0.20;0.20;;;20.70;44.30;;;;;;4933189;29;20204;-41
2022/10/09 00:44:56;;;;;;;0.20;0.20;;;20.70;44.40;;;;;;4932526;29;20220;-44
2022/10/09 00:47:39;;;;;;;0.25;0.20;;;20.80;44.40;;;;;;4933253;29;20195;-38
2022/10/09 00:50:17;;;;;;;0.20;0.20;;;20.80;44.40;;;;;;4932790;29;20231;-40
2022/10/09 00:52:48;;;;;;;0.20;0.20;;;20.80;44.30;;;;;;4932986;29;20667;-37
2022/10/09 00:55:20;;;;;;;2.97;0.40;;;20.80;44.30;;;;;;4933969;29;20199;-40
2022/10/09 00:57:51;;;;;;;0.40;0.30;;;20.80;43.90;;;;;;4916644;29;20297;-37
2022/10/09 01:00:25;;;;;;;0.95;0.20;;;20.80;43.90;;;;;;4923948;29;20204;-36
2022/10/09 01:02:56;;;;;;;2.13;0.28;;;20.90;44.00;;;;;;4936592;29;20203;-39
2022/10/09 01:05:35;;;;;;;0.30;0.30;;;20.90;44.10;;;;;;4935504;29;20207;-37
2022/10/09 01:08:12;;;;;;;0.32;0.20;;;20.90;44.30;;;;;;4936696;29;20195;-37
2022/10/09 01:10:49;;;;;;;0.95;0.20;;;20.90;44.30;;;;;;4924458;29;20587;-36
2022/10/09 01:13:29;;;;;;;0.22;0.20;;;20.90;44.40;;;;;;4928863;29;20219;-36
2022/10/09 01:16:05;;;;;;;1.17;0.30;;;20.90;44.50;;;;;;4915878;29;20203;-36
2022/10/09 01:18:45;;;;;;;1.00;0.28;;;21.00;44.60;;;;;;4917101;29;20200;-38
2022/10/09 01:21:19;;;;;;;0.65;0.20;;;21.00;44.60;;;;;;4917151;29;20230;-37
2022/10/09 01:24:19;;;;;;;0.28;0.20;;;21.00;44.60;;;;;;4917266;29;20211;-41
2022/10/09 01:27:10;;;;;;;1.77;0.32;;;21.00;44.60;;;;;;4925228;29;20207;-37
2022/10/09 01:29:45;;;;;;;0.50;0.30;;;21.00;44.50;;;;;;4927145;29;20204;-37
2022/10/09 01:32:19;;;;;;;0.63;0.38;;;21.10;44.60;;;;;;4916842;29;20205;-37
2022/10/09 01:34:51;;;;;;;2.25;0.30;;;21.10;44.60;;;;;;4917517;29;20216;-38
2022/10/09 01:37:24;;;;;;;0.43;0.30;;;21.10;44.70;;;;;;4919247;29;20200;-43
2022/10/09 01:39:55;;;;;;;0.30;0.30;;;21.10;44.80;;;;;;4916186;29;20200;-37
2022/10/09 01:42:30;;;;;;;0.32;0.30;;;21.20;44.80;;;;;;4916879;29;20211;-39
2022/10/09 01:45:00;;;;;;;1.33;0.47;;;21.20;44.90;;;;;;4916044;29;20226;-37
2022/10/09 01:47:31;;;;;;;0.70;0.30;;;21.20;44.90;;;;;;4916154;29;20571;-36
2022/10/09 01:50:08;;;;;;;0.80;0.38;;;21.20;44.90;;;;;;4916571;29;20199;-37
2022/10/09 01:52:48;;;;;;;1.15;0.50;;;21.20;45.50;;;;;;4916647;29;20203;-39
2022/10/09 01:55:38;;;;;;;0.40;0.30;;;21.20;44.90;;;;;;4915792;29;20203;-37
2022/10/09 01:58:19;;;;;;;0.20;0.20;;;21.30;44.90;;;;;;4916496;29;20196;-37
2022/10/09 02:00:54;;;;;;;0.60;0.30;;;21.30;44.70;;;;;;4926546;29;20643;-36
2022/10/09 02:03:27;;;;;;;0.60;0.43;;;21.30;44.70;;;;;;4934649;29;20563;-37
2022/10/09 02:06:00;;;;;;;0.70;0.32;;;21.30;44.70;;;;;;4933782;29;20290;-37
2022/10/09 02:08:33;;;;;;;0.82;0.30;;;21.40;44.70;;;;;;4933840;29;20202;-38
2022/10/09 02:11:05;;;;;;;0.38;0.25;;;21.40;44.80;;;;;;4920649;29;20228;-37
2022/10/09 02:13:39;;;;;;;0.30;0.30;;;21.40;44.80;;;;;;4916133;29;20228;-37
2022/10/09 02:16:17;;;;;;;0.70;0.38;;;21.50;44.80;;;;;;4915393;29;20261;-36
2022/10/09 02:18:51;;;;;;;0.88;0.30;;;21.40;44.80;;;;;;4916166;29;20197;-39
2022/10/09 02:21:24;;;;;;;0.70;0.30;;;21.50;44.80;;;;;;4916618;29;20211;-36
2022/10/09 02:23:56;;;;;;;0.85;0.43;;;21.50;44.70;;;;;;4914847;29;20220;-36
2022/10/09 02:26:28;;;;;;;5.80;0.50;;;21.50;44.70;;;;;;4923206;29;20684;-38
2022/10/09 02:29:01;;;;;;;0.65;0.40;;;21.60;44.70;;;;;;4933203;29;20207;-45
2022/10/09 02:31:34;;;;;;;1.00;0.30;;;21.60;44.40;;;;;;4933453;29;20719;-44
2022/10/09 02:34:07;;;;;;;1.52;0.32;;;21.60;44.30;;;;;;4944709;28;20680;-43
2022/10/09 02:36:38;;;;;;;0.35;0.30;;;21.60;44.10;;;;;;4952806;28;20567;-43
2022/10/09 02:39:09;;;;;;;0.82;0.40;;;21.70;44.10;;;;;;4952702;28;20235;-43
2022/10/09 02:41:40;;;;;;;0.85;0.32;;;21.70;44.70;;;;;;4952936;28;20206;-43
2022/10/09 02:44:13;;;;;;;0.90;0.40;;;21.70;44.10;;;;;;4952469;28;20219;-43
2022/10/09 02:46:44;;;;;;;0.40;0.20;;;21.80;44.20;;;;;;4952896;28;20203;-44
2022/10/09 02:49:14;;;;;;;0.45;0.20;;;21.90;44.20;;;;;;4952252;28;20203;-44
2022/10/09 02:51:45;;;;;;;0.82;0.40;;;21.90;44.20;;;;;;4952714;28;20226;-43
2022/10/09 02:54:16;;;;;;;0.47;0.30;;;21.90;44.20;;;;;;4952609;28;20361;-37
2022/10/09 02:56:46;;;;;;;2.42;0.30;;;21.90;44.20;;;;;;4941585;28;20719;-38
2022/10/09 02:59:19;;;;;;;0.73;0.20;;;22.00;44.20;;;;;;4933188;29;20207;-37
2022/10/09 03:01:50;;;;;;;1.10;0.30;;;22.00;44.10;;;;;;4933461;29;20196;-37
2022/10/09 03:04:21;;;;;;;1.85;0.40;;;22.10;44.20;;;;;;4944995;29;20214;-40
2022/10/09 03:06:51;;;;;;;1.27;0.30;;;22.10;44.10;;;;;;4939302;28;20192;-39
2022/10/09 03:09:22;;;;;;;0.47;0.40;;;22.10;44.00;;;;;;4932113;29;20200;-36
2022/10/09 03:11:53;;;;;;;1.15;0.40;;;22.20;43.90;;;;;;4913997;29;20590;-40
2022/10/09 03:14:25;;;;;;;0.60;0.20;;;22.20;43.90;;;;;;4913999;29;20228;-38
2022/10/09 03:16:56;;;;;;;0.40;0.30;;;22.20;43.80;;;;;;4914266;29;20548;-40
2022/10/09 03:19:27;;;;;;;0.50;0.40;;;22.30;44.00;;;;;;4936929;29;20205;-36
2022/10/09 03:21:57;;;;;;;0.75;0.40;;;22.30;44.00;;;;;;4951868;28;20292;-39
2022/10/09 03:24:28;;;;;;;0.38;0.30;;;22.40;44.10;;;;;;4948897;28;20727;-47
2022/10/09 03:26:59;;;;;;;1.17;0.30;;;22.40;44.10;;;;;;4931800;29;20208;-41
2022/10/09 03:29:31;;;;;;;0.68;0.20;;;22.40;44.10;;;;;;4933765;29;20203;-42
2022/10/09 03:32:02;;;;;;;0.20;0.20;;;22.50;44.10;;;;;;4922297;29;20228;-39
2022/10/09 03:34:33;;;;;;;1.63;0.45;;;22.50;44.10;;;;;;4914837;29;20311;-37
2022/10/09 03:37:04;;;;;;;1.52;0.38;;;22.50;44.00;;;;;;4915038;29;20200;-42
2022/10/09 03:39:34;;;;;;;0.20;0.20;;;22.60;44.00;;;;;;4914834;29;20554;-42
2022/10/09 03:42:05;;;;;;;1.08;0.43;;;22.60;43.90;;;;;;4915158;29;20200;-38
2022/10/09 03:44:37;;;;;;;1.25;0.30;;;22.60;43.90;;;;;;4925713;29;20212;-47
2022/10/09 03:47:08;;;;;;;0.28;0.28;;;22.70;43.80;;;;;;4933712;29;20207;-40
2022/10/09 03:49:39;;;;;;;1.02;0.35;;;22.70;43.80;;;;;;4933160;29;20579;-40
2022/10/09 03:52:10;;;;;;;0.28;0.20;;;22.70;43.70;;;;;;4933696;29;20231;-44
2022/10/09 03:54:40;;;;;;;0.32;0.30;;;22.80;43.80;;;;;;4933523;29;20230;-39
2022/10/09 03:57:11;;;;;;;0.50;0.40;;;22.80;43.80;;;;;;4933808;29;20203;-38
2022/10/09 03:59:44;;;;;;;0.40;0.30;;;22.80;43.80;;;;;;4933293;29;20210;-40
2022/10/09 04:02:14;;;;;;;0.60;0.50;;;22.90;43.90;;;;;;4928210;29;20652;-41
2022/10/09 04:04:45;;;;;;;0.80;0.40;;;22.90;43.80;;;;;;4946132;29;20222;-46
2022/10/09 04:07:16;;;;;;;0.32;0.20;;;22.90;43.90;;;;;;4914758;29;20679;-38
2022/10/09 04:09:46;;;;;;;0.50;0.22;;;22.90;44.00;;;;;;4917952;29;20207;-42
2022/10/09 04:12:17;;;;;;;0.57;0.22;;;23.00;44.00;;;;;;4933476;29;20696;-43
2022/10/09 04:14:50;;;;;;;0.68;0.28;;;23.00;43.90;;;;;;4932007;29;20787;-36
2022/10/09 04:17:20;;;;;;;1.67;0.30;;;23.00;43.80;;;;;;4933546;29;20644;-36
2022/10/09 04:19:51;;;;;;;0.88;0.40;;;23.00;43.80;;;;;;4928076;29;20199;-37
2022/10/09 04:22:22;;;;;;;0.20;0.20;;;23.00;43.80;;;;;;4913975;29;20212;-37
2022/10/09 04:24:53;;;;;;;0.52;0.25;;;23.10;43.90;;;;;;4914407;29;20290;-38
2022/10/09 04:27:23;;;;;;;0.30;0.20;;;23.10;43.80;;;;;;4929827;29;20596;-37
2022/10/09 04:29:56;;;;;;;0.93;0.32;;;23.10;43.60;;;;;;4933316;29;20199;-37
2022/10/09 04:32:27;;;;;;;0.20;0.20;;;23.10;43.50;;;;;;4917591;29;20314;-41
2022/10/09 04:34:57;;;;;;;0.35;0.30;;;23.10;43.40;;;;;;4917920;29;20251;-39
2022/10/09 04:37:28;;;;;;;1.17;0.30;;;23.10;43.20;;;;;;4917336;29;20886;-42
2022/10/09 04:40:01;;;;;;;0.60;0.30;;;23.10;43.10;;;;;;4918023;29;20542;-40
2022/10/09 04:42:33;;;;;;;0.68;0.20;;;23.10;43.50;;;;;;4917699;29;20211;-43
2022/10/09 04:45:06;;;;;;;0.40;0.40;;;23.10;43.70;;;;;;4917661;29;20228;-40
2022/10/09 04:47:37;;;;;;;0.43;0.30;;;23.10;43.80;;;;;;4917809;29;20223;-42
2022/10/09 04:50:08;;;;;;;0.80;0.30;;;23.20;43.90;;;;;;4917506;29;20196;-40
2022/10/09 04:52:39;;;;;;;0.75;0.30;;;23.20;43.80;;;;;;4916768;29;20696;-46
2022/10/09 04:55:10;;;;;;;0.40;0.30;;;23.20;43.70;;;;;;4917836;29;20225;-49
2022/10/09 04:57:41;;;;;;;0.50;0.40;;;23.20;43.60;;;;;;4935389;29;20652;-48
2022/10/09 05:00:15;;;;;;;0.30;0.30;;;23.20;43.50;;;;;;4935397;29;20208;-40
2022/10/09 05:02:45;;;;;;;0.75;0.20;;;23.20;43.40;;;;;;4936653;29;20207;-41
2022/10/09 05:05:16;;;;;;;0.70;0.20;;;23.20;43.30;;;;;;4936123;29;20234;-45
2022/10/09 05:07:50;;;;;;;0.85;0.40;;;23.20;43.00;;;;;;4936548;29;20212;-50
2022/10/09 05:10:21;;;;;;;0.38;0.30;;;23.20;43.10;;;;;;4927579;29;20200;-44
2022/10/09 05:12:51;;;;;;;2.17;0.55;;;23.20;42.90;;;;;;4917308;29;20275;-46
2022/10/09 05:15:24;;;;;;;0.75;0.38;;;23.20;43.00;;;;;;4916544;29;20565;-47
2022/10/09 05:17:55;;;;;;;0.65;0.30;;;23.20;43.10;;;;;;4917297;29;20649;-42
2022/10/09 05:20:26;;;;;;;0.85;0.40;;;23.20;43.20;;;;;;4930391;29;20204;-43
2022/10/09 05:22:56;;;;;;;1.00;0.32;;;23.20;43.40;;;;;;4936360;29;20187;-36
2022/10/09 05:25:27;;;;;;;0.40;0.30;;;23.20;43.10;;;;;;4936517;29;20202;-36
2022/10/09 05:27:59;;;;;;;0.40;0.28;;;23.20;43.00;;;;;;4936142;29;20290;-37
2022/10/09 05:30:31;;;;;;;1.50;0.40;;;23.20;43.00;;;;;;4933643;29;20660;-37
2022/10/09 05:33:02;;;;;;;1.20;0.30;;;23.20;43.80;;;;;;4916316;29;20228;-38
2022/10/09 05:35:33;;;;;;;0.70;0.35;;;23.20;43.20;;;;;;4916228;29;20202;-37
2022/10/09 05:38:03;;;;;;;1.50;0.30;;;23.20;43.00;;;;;;4918112;29;20546;-37
2022/10/09 05:40:34;;;;;;;0.75;0.40;;;23.20;42.90;;;;;;4916738;29;20200;-37
2022/10/09 05:43:05;;;;;;;1.48;0.50;;;23.20;42.80;;;;;;4916253;29;20196;-37
2022/10/09 05:45:37;;;;;;;0.75;0.38;;;23.20;42.50;;;;;;4916746;29;20200;-36
2022/10/09 05:48:08;;;;;;;0.70;0.40;;;23.10;42.60;;;;;;4916371;29;20211;-37
2022/10/09 05:50:39;;;;;;;1.95;0.60;;;23.10;42.50;;;;;;4916223;29;20207;-38
2022/10/09 05:53:09;;;;;;;0.95;0.30;;;23.10;42.50;;;;;;4916320;29;20228;-43
2022/10/09 05:55:40;;;;;;;1.25;0.47;;;23.20;42.60;;;;;;4915894;29;20196;-38
2022/10/09 05:58:11;;;;;;;1.25;0.50;;;23.10;42.60;;;;;;4916548;29;20227;-40
2022/10/09 06:00:43;;;;;;;1.98;0.40;;;23.10;42.60;;;;;;4916504;29;20212;-38
2022/10/09 06:03:14;;;;;;;1.38;0.30;;;23.10;42.50;;;;;;4916032;29;20248;-41
2022/10/09 06:05:45;;;;;;;3.03;0.57;;;23.10;42.30;;;;;;4916307;29;20211;-37
2022/10/09 06:08:15;;;;;;;1.67;0.60;;;23.10;42.30;;;;;;4916723;29;20200;-37
2022/10/09 06:10:46;;;;;;;1.33;0.47;;;23.10;42.20;;;;;;4927292;29;20196;-39
2022/10/09 06:13:17;;;;;;;1.85;0.50;;;23.10;42.30;;;;;;4934507;29;20239;-37
2022/10/09 06:15:56;;;;;;;1.65;0.60;;;23.10;42.30;;;;;;4934153;29;20205;-41
2022/10/09 06:18:29;;;;;;;0.45;0.35;;;23.10;42.30;;;;;;4934326;29;20660;-37
2022/10/09 06:21:01;;;;;;;1.27;0.52;;;23.10;42.30;;;;;;4921069;29;20200;-38
2022/10/09 06:23:32;;;;;;;1.10;0.50;;;23.10;42.40;;;;;;4917728;29;20617;-37
2022/10/09 06:26:04;;;;;;;0.75;0.30;;;23.00;42.50;;;;;;4935087;29;20661;-38
2022/10/09 06:28:36;;;;;;;0.98;0.50;;;23.10;42.70;;;;;;4934825;29;20566;-40
2022/10/09 06:31:10;;;;;;;0.82;0.50;;;23.00;42.60;;;;;;4933354;29;20203;-36
2022/10/09 06:33:42;;;;;;;1.08;0.47;;;23.00;42.70;;;;;;4933635;29;20235;-36
2022/10/09 06:36:14;;;;;;;0.73;0.40;;;23.00;42.70;;;;;;4933344;29;20202;-37
2022/10/09 06:38:45;;;;;;;1.23;0.70;;;23.00;42.40;;;;;;4933620;29;20206;-37
2022/10/09 06:41:17;;;;;;;0.75;0.30;;;23.00;42.50;;;;;;4950639;29;20210;-38
2022/10/09 06:43:52;;;;;;;0.82;0.40;;;23.00;42.50;;;;;;4952773;28;20725;-37
2022/10/09 06:46:26;;;;;;;0.50;0.40;;;23.00;42.50;;;;;;4952530;28;20203;-37
2022/10/09 06:48:57;;;;;;;0.65;0.40;;;22.90;42.40;;;;;;4952787;28;20261;-38
2022/10/09 06:51:28;;;;;;;0.63;0.40;;;22.90;42.50;;;;;;4952556;28;20199;-37
2022/10/09 06:54:00;;;;;;;1.73;0.40;;;22.90;42.50;;;;;;4951922;28;20227;-37
2022/10/09 06:56:33;;;;;;;0.40;0.30;;;22.90;42.60;;;;;;4943067;28;20218;-37
2022/10/09 06:59:05;;;;;;;0.88;0.35;;;22.80;43.10;;;;;;4933498;29;20203;-41
2022/10/09 07:01:38;;;;;;;0.30;0.28;;;22.80;42.60;;;;;;4932871;29;20191;-37
2022/10/09 07:04:11;;;;;;;1.30;0.47;;;22.80;42.60;;;;;;4933122;29;20717;-36
2022/10/09 07:06:45;;;;;;;0.68;0.47;;;22.70;42.50;;;;;;4933302;29;20286;-37
2022/10/09 07:09:17;;;;;;;1.42;0.70;;;22.70;42.40;;;;;;4933425;29;20207;-36
2022/10/09 07:11:49;;;;;;;1.23;0.52;;;22.70;42.40;;;;;;4914170;29;20199;-36
2022/10/09 07:14:20;;;;;;;0.70;0.40;;;22.70;42.40;;;;;;4914268;29;20279;-37
2022/10/09 07:16:54;;;;;;;3.03;0.40;;;22.70;43.10;;;;;;4914362;29;20218;-38
2022/10/09 07:19:25;;;;;;;1.15;0.50;;;22.60;42.50;;;;;;4914283;29;20211;-37
2022/10/09 07:21:56;;;;;;;0.70;0.40;;;22.60;42.60;;;;;;4928974;29;20207;-37
2022/10/09 07:24:26;;;;;;;1.58;0.57;;;22.60;42.60;;;;;;4933451;29;20274;-36
2022/10/09 07:26:57;;;;;;;1.17;0.60;;;22.50;42.60;;;;;;4939280;28;20211;-39
2022/10/09 07:29:28;;;;;;;0.47;0.32;;;22.50;42.70;;;;;;4932016;29;20221;-37
2022/10/09 07:32:01;;;;;;;1.13;0.47;;;22.50;42.80;;;;;;4932888;29;20242;-37
2022/10/09 07:34:31;;;;;;;1.00;0.50;;;22.50;42.80;;;;;;4931045;29;20230;-38
2022/10/09 07:37:02;;;;;;;3.00;0.40;;;22.40;42.80;;;;;;4931470;29;20195;-37
2022/10/09 07:39:34;;;;;;;2.40;0.50;;;22.40;42.90;;;;;;4933253;29;20206;-37
2022/10/09 07:42:05;;;;;;;1.13;0.40;;;22.40;42.90;;;;;;4952163;28;20236;-37
2022/10/09 07:44:36;;;;;;;1.13;0.40;;;22.40;42.90;;;;;;4951762;28;20234;-37
2022/10/09 07:47:09;;;;;;;1.10;0.40;;;22.40;42.90;;;;;;4951912;28;20209;-37
2022/10/09 07:49:40;;;;;;;0.60;0.40;;;22.30;42.90;;;;;;4951925;28;20206;-36
2022/10/09 07:52:10;;;;;;;1.13;0.50;;;22.30;43.00;;;;;;4951863;28;20216;-37
2022/10/09 07:54:41;;;;;;;0.77;0.40;;;22.30;43.00;;;;;;4951143;28;20231;-37
2022/10/09 07:57:12;;;;;;;0.40;0.40;;;22.20;43.00;;;;;;4937576;28;20207;-36
2022/10/09 07:59:42;;;;;;;0.95;0.40;;;22.20;43.00;;;;;;4932385;29;20215;-36
2022/10/09 08:02:15;;;;;;;0.60;0.43;;;22.20;43.10;;;;;;4932834;29;20206;-36
2022/10/09 08:04:46;;;;;;;0.40;0.40;;;22.10;43.20;;;;;;4933682;29;20223;-37
2022/10/09 08:07:16;;;;;;;0.43;0.40;;;22.10;43.30;;;;;;4935407;29;20195;-38
2022/10/09 08:09:47;;;;;;;0.50;0.50;;;22.10;43.30;;;;;;4936865;29;20199;-36
2022/10/09 08:12:18;;;;;;;0.85;0.38;;;22.10;43.30;;;;;;4954918;28;20252;-37
2022/10/09 08:14:49;;;;;;;1.30;0.45;;;22.10;43.30;;;;;;4954898;28;20229;-44
2022/10/09 08:17:21;;;;;;;0.45;0.40;;;22.00;43.30;;;;;;4944040;28;20196;-43
2022/10/09 08:19:52;;;;;;;0.95;0.50;;;22.00;43.30;;;;;;4928094;29;20218;-37
2022/10/09 08:22:23;;;;;;;0.77;0.50;;;22.00;43.40;;;;;;4936003;29;20199;-49
2022/10/09 08:24:53;;;;;;;0.40;0.40;;;22.00;43.40;;;;;;4919441;29;20220;-47
2022/10/09 08:27:24;;;;;;;0.50;0.30;;;21.90;44.00;;;;;;4925587;29;20200;-43
2022/10/09 08:29:55;;;;;;;0.80;0.52;;;21.90;43.40;;;;;;4920673;29;20223;-46
2022/10/09 08:32:27;;;;;;;0.52;0.40;;;21.90;43.50;;;;;;4936590;29;20456;-40
2022/10/09 08:34:58;;;;;;;0.93;0.30;;;21.80;43.50;;;;;;4935057;29;20226;-37
2022/10/09 08:37:29;;;;;;;0.93;0.40;;;21.80;43.60;;;;;;4917423;29;20287;-44
2022/10/09 08:40:00;;;;;;;0.65;0.40;;;21.80;43.60;;;;;;4917262;29;20559;-47
2022/10/09 08:42:40;;;;;;;0.98;0.47;;;21.70;43.60;;;;;;4917630;29;20664;-48
2022/10/09 08:45:18;;;;;;;1.20;0.57;;;21.70;43.60;;;;;;4922677;29;20232;-46
2022/10/09 08:47:55;;;;;;;1.58;0.40;;;21.70;43.70;;;;;;4936105;29;20200;-46
2022/10/09 08:50:30;;;;;;;0.45;0.38;;;21.70;43.70;;;;;;4936832;29;20199;-44
2022/10/09 08:53:07;;;;;;;0.63;0.40;;;21.60;43.70;;;;;;4936279;29;20223;-43
2022/10/09 08:55:43;;;;;;;1.20;0.45;;;21.60;43.80;;;;;;4936297;29;20203;-44
2022/10/09 08:58:17;;;;;;;0.35;0.35;;;21.60;43.80;;;;;;4923545;29;20196;-41
2022/10/09 09:00:51;;;;;;;1.00;0.40;;;21.60;43.80;;;;;;4916869;29;20214;-43
2022/10/09 09:03:55;;;;;;;0.82;0.50;;;21.60;43.80;;;;;;4917073;29;20231;-49
2022/10/09 09:06:35;;;;;;;1.77;0.40;;;21.50;43.90;;;;;;4927457;29;20206;-40
2022/10/09 09:09:17;;;;;;;0.70;0.55;;;21.50;43.90;;;;;;4936188;29;20568;-42
2022/10/09 09:11:54;;;;;;;0.30;0.30;;;21.50;44.00;;;;;;4920594;29;20188;-44
2022/10/09 09:14:35;;;;;;;1.08;0.50;;;21.40;44.00;;;;;;4936400;29;20234;-49
2022/10/09 09:17:12;;;;;;;1.88;0.43;;;21.40;44.00;;;;;;4934554;29;20196;-42
2022/10/09 09:20:11;;;;;;;0.40;0.40;;;21.40;44.00;;;;;;4936317;29;20289;-43
2022/10/09 09:22:43;;;;;;;0.75;0.40;;;21.30;44.00;;;;;;4934566;29;20192;-40
2022/10/09 09:25:33;;;;;;;0.63;0.50;;;21.30;44.00;;;;;;4935696;29;20696;-42
2022/10/09 09:28:12;;;;;;;0.93;0.43;;;21.30;44.10;;;;;;4916798;29;20234;-42
2022/10/09 09:30:49;;;;;;;0.98;0.60;;;21.30;44.20;;;;;;4917133;29;20200;-47
2022/10/09 09:33:23;;;;;;;0.57;0.30;;;21.20;44.20;;;;;;4920716;29;20242;-51
2022/10/09 09:36:06;;;;;;;0.95;0.50;;;21.20;44.20;;;;;;4922257;29;20312;-44
2022/10/09 09:38:37;;;;;;;0.68;0.40;;;21.10;44.20;;;;;;4916786;29;20204;-47
2022/10/09 09:41:08;;;;;;;0.68;0.40;;;21.10;44.30;;;;;;4917160;29;20204;-43
2022/10/09 09:43:39;;;;;;;0.65;0.30;;;21.10;44.30;;;;;;4916760;29;20220;-50
2022/10/09 09:46:16;;;;;;;0.50;0.50;;;21.10;44.30;;;;;;4924719;29;20199;-43
2022/10/09 09:48:48;;;;;;;1.17;0.43;;;21.00;44.30;;;;;;4921749;29;20206;-43
2022/10/09 09:51:23;;;;;;;0.30;0.30;;;21.00;44.30;;;;;;4916382;29;20200;-47
2022/10/09 09:53:58;;;;;;;0.55;0.47;;;21.00;44.30;;;;;;4915778;29;20233;-47
2022/10/09 09:56:38;;;;;;;0.57;0.50;;;21.00;44.30;;;;;;4924801;29;20291;-41
2022/10/09 09:59:26;;;;;;;0.85;0.40;;;20.90;44.30;;;;;;4919194;29;20283;-41
2022/10/09 10:02:04;;;;;;;0.63;0.45;;;20.90;44.40;;;;;;4915824;29;20287;-40
2022/10/09 10:04:35;;;;;;;0.68;0.45;;;20.90;44.50;;;;;;4916086;29;20232;-44
2022/10/09 10:07:07;;;;;;;0.50;0.50;;;20.90;44.50;;;;;;4915143;29;20208;-39
2022/10/09 10:09:38;;;;;;;0.85;0.50;;;20.90;44.60;;;;;;4919008;29;20204;-39
2022/10/09 10:12:18;;;;;;;0.95;0.50;;;20.80;44.50;;;;;;4928583;29;20188;-43
2022/10/09 10:14:53;;;;;;;0.57;0.45;;;20.80;44.60;;;;;;4915716;29;20239;-43
2022/10/09 10:17:30;;;;;;;0.35;0.35;;;20.70;44.60;;;;;;4916243;29;20206;-49
2022/10/09 10:20:00;;;;;;;0.70;0.40;;;20.70;44.50;;;;;;4915851;29;20200;-38
2022/10/09 10:22:34;;;;;;;0.50;0.50;;;20.70;44.50;;;;;;4915876;29;20573;-46
2022/10/09 10:25:06;;;;;;;0.73;0.40;;;20.80;45.20;;;;;;4916117;29;20219;-44
2022/10/09 10:27:42;;;;;;;0.40;0.40;;;20.70;44.50;;;;;;4929416;29;20255;-42
2022/10/09 10:30:17;;;;;;;0.75;0.40;;;20.70;44.60;;;;;;4915836;29;20575;-47
2022/10/09 10:32:55;;;;;;;0.70;0.40;;;20.70;44.60;;;;;;4915437;29;20203;-47
2022/10/09 10:35:31;;;;;;;0.38;0.38;;;20.60;44.70;;;;;;4915316;29;20207;-42
2022/10/09 10:38:08;;;;;;;0.98;0.52;;;20.60;44.70;;;;;;4919537;29;20217;-47
2022/10/09 10:40:44;;;;;;;0.40;0.40;;;20.60;44.70;;;;;;4934398;29;20214;-40
2022/10/09 10:43:28;;;;;;;1.60;0.50;;;20.60;44.80;;;;;;4935021;29;20199;-45
2022/10/09 10:46:06;;;;;;;0.77;0.40;;;20.50;44.80;;;;;;4932216;29;20211;-44
2022/10/09 10:48:44;;;;;;;1.00;0.38;;;20.50;44.80;;;;;;4924650;29;20208;-40
2022/10/09 10:51:32;;;;;;;0.60;0.40;;;20.50;44.80;;;;;;4918967;29;20202;-49
2022/10/09 10:54:16;;;;;;;0.43;0.43;;;20.50;44.90;;;;;;4934677;29;20237;-38
2022/10/09 10:56:50;;;;;;;0.50;0.50;;;20.50;44.80;;;;;;4934852;29;20207;-45
2022/10/09 10:59:38;;;;;;;0.63;0.50;;;20.50;44.80;;;;;;4933869;29;20192;-39
2022/10/09 11:02:36;;;;;;;0.77;0.40;;;20.40;44.80;;;;;;4933073;29;20204;-41
2022/10/09 11:05:21;;;;;;;0.40;0.40;;;20.40;44.90;;;;;;4916088;29;20238;-43
2022/10/09 11:08:01;;;;;;;0.93;0.40;;;20.40;44.90;;;;;;4913923;29;20207;-44
2022/10/09 11:10:39;;;;;;;0.47;0.35;;;20.30;45.00;;;;;;4933075;29;20209;-41
2022/10/09 11:13:16;;;;;;;1.33;0.50;;;20.30;45.00;;;;;;4952126;28;20231;-40
2022/10/09 11:15:58;;;;;;;0.75;0.57;;;20.30;45.10;;;;;;4952334;28;20671;-37
2022/10/09 11:18:53;;;;;;;0.73;0.40;;;20.30;45.10;;;;;;4952319;28;20222;-44
2022/10/09 11:21:46;;;;;;;0.30;0.30;;;20.20;45.10;;;;;;4952195;28;20210;-40
2022/10/09 11:24:42;;;;;;;0.40;0.40;;;20.20;45.10;;;;;;4940118;28;20216;-37
2022/10/09 11:27:20;;;;;;;0.52;0.50;;;20.20;45.10;;;;;;4920317;29;20204;-37
2022/10/09 11:29:54;;;;;;;0.95;0.40;;;20.20;45.00;;;;;;4932956;29;20219;-40
2022/10/09 11:32:29;;;;;;;0.70;0.50;;;20.20;45.00;;;;;;4932859;29;20609;-37
2022/10/09 11:35:04;;;;;;;1.05;0.50;;;20.20;45.10;;;;;;4932441;29;20235;-42
2022/10/09 11:37:38;;;;;;;0.40;0.40;;;20.20;45.10;;;;;;4932624;29;20195;-39
2022/10/09 11:40:18;;;;;;;0.95;0.57;;;20.10;45.10;;;;;;4936159;29;20202;-37
2022/10/09 11:42:57;;;;;;;0.60;0.60;;;20.10;45.20;;;;;;4951725;28;20195;-36
2022/10/09 11:45:31;;;;;;;0.77;0.45;;;20.10;45.30;;;;;;4951814;28;20281;-37
2022/10/09 11:48:09;;;;;;;0.75;0.50;;;20.00;45.30;;;;;;4922039;28;20214;-36
2022/10/09 11:50:50;;;;;;;0.43;0.40;;;20.10;45.40;;;;;;4932601;29;20660;-40
2022/10/09 11:53:23;;;;;;;0.57;0.50;;;20.00;45.30;;;;;;4932044;29;20636;-37
2022/10/09 11:56:05;;;;;;;0.65;0.50;;;20.00;45.30;;;;;;4937961;29;20210;-40
2022/10/09 11:58:38;;;;;;;0.60;0.47;;;20.00;45.30;;;;;;4932940;29;20199;-40
2022/10/09 12:01:22;;;;;;;0.70;0.63;;;20.00;45.30;;;;;;4932608;29;20223;-37
2022/10/09 12:04:03;;;;;;;0.50;0.50;;;20.00;45.30;;;;;;4932086;29;20231;-37
2022/10/09 12:06:46;;;;;;;0.95;0.50;;;19.90;45.30;;;;;;4932358;29;20199;-41
2022/10/09 12:09:25;;;;;;;1.45;0.50;;;19.90;45.30;;;;;;4932307;29;20215;-39
2022/10/09 12:12:04;;;;;;;0.55;0.32;;;19.90;45.40;;;;;;4948807;29;20201;-38
2022/10/09 12:14:39;;;;;;;0.55;0.52;;;19.90;45.40;;;;;;4950726;28;20345;-39
2022/10/09 12:17:19;;;;;;;0.43;0.40;;;19.80;45.50;;;;;;4951202;28;20659;-37
2022/10/09 12:19:53;;;;;;;0.52;0.32;;;19.80;45.50;;;;;;4951505;28;20202;-44
2022/10/09 12:22:27;;;;;;;0.40;0.40;;;19.80;45.50;;;;;;4951680;28;20203;-40
2022/10/09 12:24:59;;;;;;;1.10;0.50;;;19.80;45.60;;;;;;4950958;28;20226;-41
2022/10/09 12:27:33;;;;;;;0.32;0.30;;;19.80;45.60;;;;;;4934571;28;20644;-37
2022/10/09 12:30:19;;;;;;;0.95;0.55;;;19.80;45.50;;;;;;4931810;29;20196;-39
2022/10/09 12:32:55;;;;;;;0.77;0.40;;;19.70;45.50;;;;;;4932197;29;20225;-37
2022/10/09 12:35:30;;;;;;;1.02;0.50;;;19.70;45.50;;;;;;4932187;29;20233;-37
2022/10/09 12:38:04;;;;;;;0.55;0.45;;;19.70;45.40;;;;;;4931733;29;20210;-37
2022/10/09 12:40:36;;;;;;;0.95;0.45;;;19.70;45.50;;;;;;4936639;29;20192;-40
2022/10/09 12:43:10;;;;;;;0.95;0.50;;;19.70;45.50;;;;;;4951067;28;20690;-37
2022/10/09 12:45:47;;;;;;;1.48;0.52;;;19.70;45.60;;;;;;4951195;28;20198;-37
2022/10/09 12:48:22;;;;;;;1.25;0.50;;;19.70;45.70;;;;;;4951258;28;20667;-38
2022/10/09 12:50:53;;;;;;;0.70;0.40;;;19.60;45.60;;;;;;4951766;28;20241;-37
2022/10/09 12:53:25;;;;;;;1.45;0.40;;;19.60;45.70;;;;;;4954662;28;20227;-39
2022/10/09 12:55:59;;;;;;;0.70;0.60;;;19.60;45.70;;;;;;4949793;28;20195;-37
2022/10/09 12:58:32;;;;;;;1.02;0.50;;;19.60;45.70;;;;;;4935795;29;20204;-39
2022/10/09 13:01:07;;;;;;;0.70;0.40;;;19.50;45.60;;;;;;4935388;29;20661;-37
2022/10/09 13:03:40;;;;;;;0.30;0.30;;;19.60;45.60;;;;;;4935033;29;20211;-44
2022/10/09 13:06:16;;;;;;;0.47;0.43;;;19.60;45.60;;;;;;4935544;29;20199;-36
2022/10/09 13:08:47;;;;;;;0.77;0.50;;;19.50;45.60;;;;;;4935631;29;20199;-37
2022/10/09 13:11:22;;;;;;;0.63;0.40;;;19.50;45.60;;;;;;4944942;29;20214;-41
2022/10/09 13:13:54;;;;;;;0.57;0.40;;;19.50;45.60;;;;;;4953821;28;20591;-39
2022/10/09 13:16:27;;;;;;;0.30;0.30;;;19.50;45.70;;;;;;4954040;28;20668;-37
2022/10/09 13:19:01;;;;;;;0.43;0.40;;;19.50;45.80;;;;;;4954279;28;20229;-37
2022/10/09 13:21:34;;;;;;;0.60;0.50;;;19.40;45.80;;;;;;4954605;28;20209;-37
2022/10/09 13:24:11;;;;;;;0.80;0.60;;;19.40;45.80;;;;;;4953931;28;20233;-36